Time;durP1;ratioP1;P1;durP2;ratioP2;P2;SDS_P1;SDS_P2;PMS_P1;PMS_P2;Temp;Humidity;BMP_temperature;BMP_pressure;BME280_temperature;BME280_humidity;BME280_pressure;Samples;Min_cycle;Max_cycle;Signal;HPM_P1;HPM_P2
2021/12/03 00:01:15;;;;;;;2.72;1.23;;;18.00;46.10;;;;;;5116147;28;20020;-58
2021/12/03 00:03:42;;;;;;;1.92;0.80;;;18.00;46.10;;;;;;5116254;28;20092;-59
2021/12/03 00:06:08;;;;;;;1.17;0.70;;;17.90;46.10;;;;;;5114654;28;20431;-59
2021/12/03 00:08:34;;;;;;;1.73;0.93;;;17.90;46.10;;;;;;5115468;28;20044;-60
2021/12/03 00:11:02;;;;;;;0.98;0.80;;;17.90;46.10;;;;;;5115970;28;20088;-59
2021/12/03 00:13:29;;;;;;;1.65;0.90;;;17.90;46.10;;;;;;5114457;28;20023;-60
2021/12/03 00:15:56;;;;;;;2.38;1.20;;;17.90;46.10;;;;;;5115859;28;20047;-59
2021/12/03 00:18:22;;;;;;;1.70;1.10;;;17.90;46.10;;;;;;5115394;28;20018;-60
2021/12/03 00:20:49;;;;;;;1.65;1.02;;;17.90;46.10;;;;;;5115656;28;20386;-59
2021/12/03 00:23:15;;;;;;;2.22;1.05;;;17.90;46.10;;;;;;5115678;27;20026;-59
2021/12/03 00:25:42;;;;;;;1.52;0.93;;;17.80;46.10;;;;;;5115519;28;20702;-59
2021/12/03 00:28:08;;;;;;;1.73;1.00;;;17.80;46.10;;;;;;5115712;28;20019;-59
2021/12/03 00:30:35;;;;;;;1.95;1.00;;;17.90;46.10;;;;;;5115372;28;20011;-59
2021/12/03 00:33:01;;;;;;;1.75;1.00;;;17.80;46.20;;;;;;5115439;28;20015;-59
2021/12/03 00:35:28;;;;;;;1.27;0.90;;;17.80;46.10;;;;;;5115416;28;20008;-60
2021/12/03 00:37:54;;;;;;;1.30;0.65;;;17.80;46.20;;;;;;5115142;28;20008;-60
2021/12/03 00:40:26;;;;;;;2.30;1.38;;;17.80;46.10;;;;;;5115315;28;20418;-60
2021/12/03 00:42:53;;;;;;;1.48;0.80;;;17.80;46.20;;;;;;5114962;28;20047;-59
2021/12/03 00:45:20;;;;;;;1.45;0.98;;;17.80;46.20;;;;;;5114998;28;20020;-60
2021/12/03 00:47:46;;;;;;;1.50;1.00;;;17.80;46.20;;;;;;5114831;28;20027;-60
2021/12/03 00:50:14;;;;;;;2.30;0.95;;;17.80;46.20;;;;;;5096679;28;20031;-60
2021/12/03 00:52:41;;;;;;;2.13;1.08;;;17.80;46.20;;;;;;5115129;28;20078;-60
2021/12/03 00:55:07;;;;;;;1.75;1.10;;;17.80;46.20;;;;;;5114881;28;20523;-60
2021/12/03 00:57:33;;;;;;;3.00;1.08;;;17.80;46.10;;;;;;5114689;28;20420;-59
2021/12/03 00:59:58;;;;;;;1.90;0.80;;;17.70;46.10;;;;;;5115128;28;20012;-59
2021/12/03 01:02:24;;;;;;;1.42;1.08;;;17.80;46.20;;;;;;5096855;28;20415;-60
2021/12/03 01:04:50;;;;;;;1.88;1.00;;;17.80;46.20;;;;;;5113312;28;20023;-60
2021/12/03 01:07:17;;;;;;;1.50;1.08;;;17.70;46.10;;;;;;5113450;28;20023;-60
2021/12/03 01:09:42;;;;;;;2.30;1.15;;;17.70;46.10;;;;;;5114239;28;20048;-59
2021/12/03 01:12:09;;;;;;;2.95;0.90;;;17.70;46.10;;;;;;5114397;28;20067;-59
2021/12/03 01:14:36;;;;;;;1.75;0.82;;;17.70;46.10;;;;;;5114289;28;20072;-60
2021/12/03 01:17:03;;;;;;;2.67;1.00;;;17.70;46.10;;;;;;5114210;28;20027;-60
2021/12/03 01:19:28;;;;;;;1.38;0.85;;;17.70;46.10;;;;;;5114232;28;20107;-60
2021/12/03 01:21:55;;;;;;;1.60;0.90;;;17.70;46.10;;;;;;5113006;28;20473;-63
2021/12/03 01:24:21;;;;;;;1.30;1.00;;;17.70;46.10;;;;;;5114071;28;20028;-60
2021/12/03 01:26:53;;;;;;;1.40;0.90;;;17.70;46.10;;;;;;5114455;28;20053;-60
2021/12/03 01:29:19;;;;;;;1.98;1.00;;;17.70;46.10;;;;;;5113602;28;20027;-60
2021/12/03 01:31:44;;;;;;;2.00;1.00;;;17.70;46.10;;;;;;5114167;28;20065;-60
2021/12/03 01:34:10;;;;;;;1.63;0.93;;;17.70;46.10;;;;;;5114211;28;20008;-59
2021/12/03 01:36:37;;;;;;;1.55;0.93;;;17.60;46.10;;;;;;5114180;28;20012;-60
2021/12/03 01:39:03;;;;;;;1.38;0.85;;;17.60;46.10;;;;;;5114156;28;20020;-59
2021/12/03 01:41:32;;;;;;;1.73;0.90;;;17.60;46.10;;;;;;5112963;28;20016;-60
2021/12/03 01:44:02;;;;;;;2.45;1.30;;;17.60;46.10;;;;;;5114086;28;20018;-61
2021/12/03 01:46:28;;;;;;;2.22;0.95;;;17.60;46.10;;;;;;5114012;28;20015;-60
2021/12/03 01:48:54;;;;;;;1.50;0.82;;;17.60;46.10;;;;;;5113813;28;20793;-60
2021/12/03 01:51:20;;;;;;;1.95;1.08;;;17.60;46.10;;;;;;5113821;28;20022;-60
2021/12/03 01:53:46;;;;;;;1.27;0.82;;;17.60;46.10;;;;;;5113922;28;20086;-59
2021/12/03 01:56:13;;;;;;;1.45;0.90;;;17.60;46.10;;;;;;5113973;28;20023;-60
2021/12/03 01:58:39;;;;;;;1.45;1.00;;;17.60;46.10;;;;;;5113900;28;20107;-60
2021/12/03 02:01:08;;;;;;;2.20;1.23;;;17.60;46.10;;;;;;5113968;28;20103;-59
2021/12/03 02:03:36;;;;;;;2.72;0.98;;;17.50;46.10;;;;;;5113631;28;20072;-59
2021/12/03 02:06:03;;;;;;;1.20;0.73;;;17.60;46.10;;;;;;5113677;28;20088;-59
2021/12/03 02:08:29;;;;;;;2.33;1.05;;;17.60;46.10;;;;;;5113445;28;20091;-59
2021/12/03 02:10:55;;;;;;;1.95;1.00;;;17.50;46.10;;;;;;5113667;28;20485;-60
2021/12/03 02:13:21;;;;;;;1.10;0.95;;;17.50;46.10;;;;;;5113414;28;20016;-59
2021/12/03 02:15:47;;;;;;;1.45;0.88;;;17.60;46.10;;;;;;5113355;28;20016;-58
2021/12/03 02:18:14;;;;;;;1.45;0.95;;;17.50;46.10;;;;;;5113465;28;20099;-59
2021/12/03 02:20:47;;;;;;;3.50;0.80;;;17.50;46.00;;;;;;5113674;28;20055;-59
2021/12/03 02:23:14;;;;;;;2.90;1.20;;;17.50;46.10;;;;;;5113717;28;20094;-59
2021/12/03 02:25:40;;;;;;;1.63;0.90;;;17.50;46.10;;;;;;5113704;28;20012;-59
2021/12/03 02:28:06;;;;;;;2.60;1.13;;;17.50;46.10;;;;;;5113584;28;20016;-58
2021/12/03 02:30:32;;;;;;;3.47;1.15;;;17.50;46.10;;;;;;5112160;28;20489;-60
2021/12/03 02:32:58;;;;;;;1.75;0.82;;;17.50;46.10;;;;;;5113261;28;20023;-59
2021/12/03 02:35:24;;;;;;;3.15;1.15;;;17.50;46.10;;;;;;5112468;28;20016;-59
2021/12/03 02:37:53;;;;;;;1.88;1.00;;;17.50;46.10;;;;;;5113136;28;20387;-59
2021/12/03 02:40:19;;;;;;;1.52;1.00;;;17.50;46.10;;;;;;5113274;28;20095;-59
2021/12/03 02:42:45;;;;;;;1.73;0.88;;;17.50;46.00;;;;;;5117158;28;20473;-60
2021/12/03 02:45:12;;;;;;;2.33;1.00;;;17.40;46.00;;;;;;5117636;28;20035;-59
2021/12/03 02:47:38;;;;;;;1.50;0.88;;;17.40;46.00;;;;;;5117716;28;20042;-59
2021/12/03 02:50:05;;;;;;;2.00;1.00;;;17.50;46.10;;;;;;5116276;28;20104;-60
2021/12/03 02:52:30;;;;;;;2.05;1.10;;;17.40;46.00;;;;;;5117171;28;20008;-59
2021/12/03 02:54:57;;;;;;;2.15;1.10;;;17.40;46.00;;;;;;5117601;28;20026;-59
2021/12/03 02:57:25;;;;;;;2.22;1.20;;;17.50;46.10;;;;;;5116371;28;20022;-59
2021/12/03 02:59:51;;;;;;;1.27;1.00;;;17.40;46.00;;;;;;5117577;28;20068;-59
2021/12/03 03:02:19;;;;;;;3.97;0.95;;;17.40;46.00;;;;;;5117348;28;20016;-60
2021/12/03 03:04:45;;;;;;;2.72;1.05;;;17.40;46.10;;;;;;5117346;28;20090;-59
2021/12/03 03:07:12;;;;;;;1.83;1.10;;;17.40;46.00;;;;;;5117547;28;20024;-59
2021/12/03 03:09:38;;;;;;;1.67;1.00;;;17.40;46.10;;;;;;5116796;28;20077;-59
2021/12/03 03:12:06;;;;;;;3.22;0.85;;;17.40;46.10;;;;;;5117259;28;20028;-60
2021/12/03 03:14:32;;;;;;;2.05;1.10;;;17.40;46.10;;;;;;5117227;28;20016;-60
2021/12/03 03:16:57;;;;;;;1.58;1.00;;;17.40;46.10;;;;;;5117106;28;20026;-59
2021/12/03 03:19:24;;;;;;;1.48;0.98;;;17.30;46.10;;;;;;5118128;28;20093;-60
2021/12/03 03:21:51;;;;;;;2.17;1.15;;;17.40;46.10;;;;;;5117790;28;20429;-59
2021/12/03 03:24:17;;;;;;;2.75;1.02;;;17.30;46.00;;;;;;5117138;28;20095;-60
2021/12/03 03:26:44;;;;;;;3.30;1.10;;;17.30;46.00;;;;;;5115949;28;20104;-59
2021/12/03 03:29:11;;;;;;;1.42;0.80;;;17.40;46.00;;;;;;5116874;28;20015;-59
2021/12/03 03:31:38;;;;;;;1.50;0.90;;;17.40;46.00;;;;;;5116963;28;20032;-59
2021/12/03 03:34:04;;;;;;;2.25;1.05;;;17.30;46.00;;;;;;5116632;28;20012;-59
2021/12/03 03:36:37;;;;;;;1.38;0.90;;;17.30;46.00;;;;;;5116919;28;20038;-59
2021/12/03 03:39:07;;;;;;;2.17;1.00;;;17.30;46.10;;;;;;5117192;28;20026;-59
2021/12/03 03:41:34;;;;;;;1.92;1.05;;;17.30;46.00;;;;;;5117157;28;20020;-59
2021/12/03 03:44:00;;;;;;;3.10;1.10;;;17.30;46.10;;;;;;5117118;28;20091;-59
2021/12/03 03:46:26;;;;;;;2.17;1.00;;;17.30;46.00;;;;;;5115242;28;20039;-59
2021/12/03 03:48:52;;;;;;;2.88;0.85;;;17.30;46.00;;;;;;5116432;28;20023;-59
2021/12/03 03:51:18;;;;;;;2.00;1.10;;;17.30;46.00;;;;;;5115250;28;20023;-59
2021/12/03 03:53:43;;;;;;;1.83;1.10;;;17.30;46.00;;;;;;5115946;28;20081;-59
2021/12/03 03:56:10;;;;;;;1.83;1.15;;;17.30;46.60;;;;;;5117424;28;20036;-59
2021/12/03 03:58:37;;;;;;;2.22;1.13;;;17.30;46.00;;;;;;5116102;28;20367;-59
2021/12/03 04:01:06;;;;;;;2.00;1.00;;;17.30;45.90;;;;;;5116844;28;20148;-59
2021/12/03 04:03:32;;;;;;;2.42;1.20;;;17.20;45.90;;;;;;5116705;28;20020;-59
2021/12/03 04:05:59;;;;;;;1.52;1.00;;;17.20;45.90;;;;;;5116292;28;20027;-59
2021/12/03 04:08:28;;;;;;;1.55;0.93;;;17.20;45.90;;;;;;5115947;28;20042;-59
2021/12/03 04:10:54;;;;;;;2.55;1.35;;;17.20;45.90;;;;;;5115228;28;20024;-59
2021/12/03 04:13:19;;;;;;;2.05;0.82;;;17.20;45.80;;;;;;5114934;28;20119;-60
2021/12/03 04:15:49;;;;;;;2.03;0.95;;;17.20;45.90;;;;;;5115775;28;20091;-59
2021/12/03 04:18:14;;;;;;;2.72;1.05;;;17.20;45.90;;;;;;5115995;28;20073;-59
2021/12/03 04:20:41;;;;;;;1.33;0.77;;;17.20;45.80;;;;;;5116141;28;20016;-59
2021/12/03 04:23:07;;;;;;;2.50;1.00;;;17.20;45.80;;;;;;5114322;28;20474;-59
2021/12/03 04:25:35;;;;;;;2.03;1.17;;;17.30;45.60;;;;;;5115892;28;20035;-59
2021/12/03 04:28:01;;;;;;;2.15;1.10;;;17.40;45.40;;;;;;5115718;28;20020;-59
2021/12/03 04:30:28;;;;;;;1.70;0.98;;;17.50;45.00;;;;;;5115240;28;20042;-59
2021/12/03 04:32:54;;;;;;;1.40;0.88;;;17.40;45.10;;;;;;5115293;28;20580;-59
2021/12/03 04:35:20;;;;;;;2.10;1.13;;;17.50;45.10;;;;;;5115134;28;20019;-60
2021/12/03 04:37:46;;;;;;;1.63;1.05;;;17.60;44.80;;;;;;5114127;28;20012;-60
2021/12/03 04:40:13;;;;;;;1.45;0.88;;;17.60;44.70;;;;;;5114144;28;20114;-60
2021/12/03 04:42:39;;;;;;;2.45;1.02;;;17.70;44.60;;;;;;5115311;28;20083;-59
2021/12/03 04:45:06;;;;;;;1.83;1.10;;;17.80;44.40;;;;;;5115195;28;20016;-60
2021/12/03 04:47:32;;;;;;;2.05;1.10;;;17.90;44.20;;;;;;5096641;28;20057;-59
2021/12/03 04:49:57;;;;;;;1.85;0.98;;;18.10;44.00;;;;;;5113738;28;20752;-60
2021/12/03 04:52:24;;;;;;;2.00;1.10;;;18.10;43.80;;;;;;5115157;28;20022;-59
2021/12/03 04:54:53;;;;;;;2.28;1.02;;;18.20;43.60;;;;;;5114655;28;20040;-60
2021/12/03 04:57:22;;;;;;;2.20;1.10;;;18.30;43.40;;;;;;5115105;28;20086;-60
2021/12/03 04:59:47;;;;;;;1.92;1.02;;;18.40;43.30;;;;;;5114872;28;20015;-60
2021/12/03 05:02:13;;;;;;;1.77;1.05;;;18.50;43.10;;;;;;5113453;28;20039;-60
2021/12/03 05:04:40;;;;;;;1.40;1.00;;;18.50;43.00;;;;;;5114647;28;20012;-60
2021/12/03 05:07:17;;;;;;;1.75;1.10;;;18.60;42.90;;;;;;5114627;27;20022;-59
2021/12/03 05:09:42;;;;;;;1.77;1.02;;;18.70;42.70;;;;;;5114329;28;20047;-60
2021/12/03 05:12:09;;;;;;;2.90;1.00;;;18.80;42.50;;;;;;5114548;28;20113;-60
2021/12/03 05:14:35;;;;;;;2.53;0.88;;;18.90;42.30;;;;;;5114670;28;20016;-60
2021/12/03 05:17:01;;;;;;;1.55;0.90;;;18.90;42.10;;;;;;5114517;28;20470;-60
2021/12/03 05:19:27;;;;;;;1.35;0.77;;;19.00;42.00;;;;;;5114751;28;20019;-59
2021/12/03 05:21:54;;;;;;;1.50;0.77;;;19.10;41.80;;;;;;5114601;28;20019;-60
2021/12/03 05:24:20;;;;;;;1.70;1.05;;;19.20;41.60;;;;;;5113386;28;20020;-60
2021/12/03 05:26:47;;;;;;;1.63;1.10;;;19.30;41.40;;;;;;5114563;28;20043;-60
2021/12/03 05:29:14;;;;;;;2.88;1.17;;;19.30;41.30;;;;;;5114358;28;20020;-60
2021/12/03 05:31:40;;;;;;;1.30;0.80;;;19.40;41.20;;;;;;5114425;28;20019;-60
2021/12/03 05:34:10;;;;;;;2.55;1.08;;;19.50;41.20;;;;;;5112899;28;20165;-60
2021/12/03 05:36:36;;;;;;;1.95;1.00;;;19.50;41.00;;;;;;5114384;28;20026;-60
2021/12/03 05:39:02;;;;;;;1.67;0.93;;;19.60;40.90;;;;;;5114139;28;20016;-60
2021/12/03 05:41:28;;;;;;;2.17;1.10;;;19.70;40.80;;;;;;5112859;28;20026;-59
2021/12/03 05:43:54;;;;;;;3.45;1.13;;;19.70;40.70;;;;;;5112790;28;20050;-60
2021/12/03 05:46:20;;;;;;;4.18;1.23;;;19.80;40.70;;;;;;5112642;28;20020;-59
2021/12/03 05:48:46;;;;;;;1.25;0.70;;;19.80;40.50;;;;;;5113932;28;20397;-60
2021/12/03 05:51:12;;;;;;;1.48;0.93;;;19.90;40.40;;;;;;5113753;28;20065;-59
2021/12/03 05:53:39;;;;;;;1.85;0.93;;;20.00;40.40;;;;;;5112825;28;20019;-60
2021/12/03 05:56:05;;;;;;;2.05;1.15;;;20.00;40.30;;;;;;5113884;28;20065;-60
2021/12/03 05:58:30;;;;;;;1.58;0.93;;;20.10;40.20;;;;;;5112785;28;20027;-60
2021/12/03 06:00:56;;;;;;;1.50;0.88;;;20.20;40.20;;;;;;5112338;28;20012;-60
2021/12/03 06:03:22;;;;;;;2.17;0.90;;;20.20;40.00;;;;;;5113494;28;20019;-60
2021/12/03 06:05:48;;;;;;;1.77;0.93;;;20.20;40.00;;;;;;5113438;28;20012;-60
2021/12/03 06:08:13;;;;;;;1.73;1.02;;;20.30;39.90;;;;;;5113348;28;20047;-60
2021/12/03 06:10:40;;;;;;;1.98;0.80;;;20.30;39.80;;;;;;5113826;28;20168;-60
2021/12/03 06:13:06;;;;;;;1.05;0.85;;;20.40;39.80;;;;;;5113689;28;20486;-59
2021/12/03 06:15:32;;;;;;;4.03;1.10;;;20.50;39.60;;;;;;5113220;28;20014;-59
2021/12/03 06:17:58;;;;;;;3.03;1.20;;;20.60;39.60;;;;;;5112221;28;20779;-60
2021/12/03 06:20:24;;;;;;;2.00;1.02;;;20.60;39.50;;;;;;5095302;28;20028;-60
2021/12/03 06:22:50;;;;;;;1.52;0.85;;;20.60;39.50;;;;;;5113283;28;20039;-60
2021/12/03 06:25:17;;;;;;;2.78;1.10;;;20.70;39.40;;;;;;5113185;28;20016;-60
2021/12/03 06:27:43;;;;;;;2.80;0.98;;;20.70;39.30;;;;;;5113561;28;20068;-60
2021/12/03 06:30:11;;;;;;;2.50;0.98;;;20.80;39.30;;;;;;5113346;28;20028;-60
2021/12/03 06:32:38;;;;;;;3.10;1.00;;;20.80;39.20;;;;;;5112072;28;20106;-60
2021/12/03 06:35:05;;;;;;;2.78;0.75;;;20.90;39.20;;;;;;5111963;28;20166;-60
2021/12/03 06:37:30;;;;;;;2.35;1.00;;;20.90;39.10;;;;;;5113374;28;20016;-60
2021/12/03 06:39:56;;;;;;;4.85;1.30;;;21.00;39.00;;;;;;5113057;28;20046;-60
2021/12/03 06:42:22;;;;;;;1.77;0.90;;;21.00;39.00;;;;;;5113032;28;20122;-60
2021/12/03 06:44:48;;;;;;;2.13;1.10;;;21.00;38.90;;;;;;5112004;28;20016;-60
2021/12/03 06:47:13;;;;;;;2.40;1.02;;;21.10;38.90;;;;;;5111999;28;20023;-60
2021/12/03 06:49:40;;;;;;;1.67;0.93;;;21.20;38.80;;;;;;5113444;28;20038;-60
2021/12/03 06:52:09;;;;;;;1.33;0.90;;;21.20;38.80;;;;;;5113084;28;20508;-60
2021/12/03 06:54:35;;;;;;;1.83;1.00;;;21.20;38.70;;;;;;5113373;28;20035;-60
2021/12/03 06:57:03;;;;;;;2.10;1.08;;;21.20;38.60;;;;;;5111624;28;20012;-60
2021/12/03 06:59:29;;;;;;;1.88;1.20;;;21.20;38.40;;;;;;5113019;28;20012;-60
2021/12/03 07:01:55;;;;;;;3.47;1.40;;;21.20;38.30;;;;;;5110690;28;20495;-60
2021/12/03 07:04:22;;;;;;;1.45;1.00;;;21.30;38.80;;;;;;5111049;28;20012;-60
2021/12/03 07:06:49;;;;;;;3.67;1.45;;;21.40;38.30;;;;;;5094169;28;20024;-60
2021/12/03 07:09:16;;;;;;;2.42;1.13;;;21.40;38.20;;;;;;5112026;28;20047;-60
2021/12/03 07:11:42;;;;;;;2.38;1.20;;;21.50;38.10;;;;;;5112435;28;20069;-61
2021/12/03 07:14:08;;;;;;;2.67;1.15;;;21.50;38.10;;;;;;5111956;28;20153;-60
2021/12/03 07:16:34;;;;;;;2.08;1.15;;;21.60;38.10;;;;;;5110682;28;20020;-60
2021/12/03 07:19:00;;;;;;;2.05;1.17;;;21.60;38.00;;;;;;5110645;28;20098;-60
2021/12/03 07:21:26;;;;;;;2.45;1.13;;;21.60;38.00;;;;;;5109383;28;20619;-60
2021/12/03 07:23:53;;;;;;;5.78;1.88;;;21.60;37.90;;;;;;5111126;28;20024;-61
2021/12/03 07:26:19;;;;;;;9.30;2.83;;;21.60;38.90;;;;;;5110329;28;20020;-60
2021/12/03 07:28:45;;;;;;;16.65;2.85;;;21.50;39.20;;;;;;5112045;28;20023;-60
2021/12/03 07:31:13;;;;;;;12.68;3.67;;;21.20;38.40;;;;;;5115118;28;20417;-60
2021/12/03 07:33:42;;;;;;;13.10;3.67;;;20.90;38.10;;;;;;5115622;27;20020;-60
2021/12/03 07:36:08;;;;;;;12.15;4.20;;;20.60;37.50;;;;;;5114116;28;20130;-60
2021/12/03 07:38:34;;;;;;;10.10;4.00;;;20.40;37.30;;;;;;5113707;28;20011;-59
2021/12/03 07:41:01;;;;;;;11.32;3.83;;;20.30;38.10;;;;;;5115652;28;20040;-60
2021/12/03 07:43:27;;;;;;;15.52;3.75;;;20.10;36.90;;;;;;5113892;28;20031;-59
2021/12/03 07:45:53;;;;;;;15.63;4.40;;;20.00;37.20;;;;;;5113252;28;20007;-60
2021/12/03 07:48:22;;;;;;;13.90;4.20;;;19.80;37.30;;;;;;5114397;28;20020;-60
2021/12/03 07:50:48;;;;;;;46.53;6.15;;;19.70;37.30;;;;;;5114640;28;20008;-59
2021/12/03 07:53:17;;;;;;;18.40;4.13;;;19.70;37.40;;;;;;5114958;28;20008;-59
2021/12/03 07:55:44;;;;;;;16.25;4.35;;;19.80;37.00;;;;;;5114616;27;20008;-59
2021/12/03 07:58:10;;;;;;;11.40;4.05;;;19.80;36.80;;;;;;5114636;28;20015;-59
2021/12/03 08:00:37;;;;;;;15.15;3.97;;;19.70;37.00;;;;;;5115433;28;20019;-59
2021/12/03 08:03:03;;;;;;;12.95;3.85;;;19.80;36.90;;;;;;5114652;28;20019;-60
2021/12/03 08:05:28;;;;;;;11.90;3.78;;;19.50;36.90;;;;;;5114905;28;20015;-59
2021/12/03 08:07:55;;;;;;;14.48;3.72;;;19.60;36.80;;;;;;5114030;28;20091;-60
2021/12/03 08:10:21;;;;;;;13.77;3.95;;;19.60;36.40;;;;;;5113609;28;20035;-60
2021/12/03 08:12:47;;;;;;;23.85;3.83;;;19.70;36.20;;;;;;5114522;28;20098;-60
2021/12/03 08:15:14;;;;;;;16.58;3.95;;;19.70;35.90;;;;;;5112325;28;20043;-62
2021/12/03 08:17:42;;;;;;;17.80;4.25;;;19.60;35.50;;;;;;5114190;28;20491;-58
2021/12/03 08:20:09;;;;;;;14.63;4.18;;;19.60;35.50;;;;;;5113121;28;20054;-60
2021/12/03 08:22:34;;;;;;;20.40;4.63;;;19.60;35.60;;;;;;5114497;28;20058;-60
2021/12/03 08:25:00;;;;;;;10.27;3.30;;;19.60;35.20;;;;;;5114098;28;20031;-59
2021/12/03 08:27:26;;;;;;;15.50;3.92;;;19.60;35.10;;;;;;5112243;28;20023;-61
2021/12/03 08:29:52;;;;;;;12.07;4.15;;;19.60;34.70;;;;;;5095183;28;20027;-61
2021/12/03 08:32:17;;;;;;;13.80;3.25;;;19.80;34.50;;;;;;5112531;28;20107;-60
2021/12/03 08:34:43;;;;;;;10.70;3.22;;;19.80;34.20;;;;;;5113947;28;20015;-60
2021/12/03 08:37:10;;;;;;;11.88;3.75;;;19.60;34.30;;;;;;5112389;28;20358;-59
2021/12/03 08:39:36;;;;;;;14.35;4.10;;;19.50;34.60;;;;;;5113333;28;20537;-59
2021/12/03 08:42:03;;;;;;;13.85;3.75;;;19.40;34.60;;;;;;5112801;28;20030;-60
2021/12/03 08:44:31;;;;;;;10.20;3.33;;;19.30;34.70;;;;;;5113966;28;20069;-60
2021/12/03 08:46:59;;;;;;;9.70;3.08;;;19.00;35.10;;;;;;5095564;28;20049;-60
2021/12/03 08:49:33;;;;;;;14.00;4.05;;;19.00;35.20;;;;;;5112565;28;20023;-60
2021/12/03 08:57:15;;;;;;;21.90;4.57;;;19.20;35.50;;;;;;5112365;28;20039;-60
2021/12/03 08:59:42;;;;;;;11.15;3.83;;;19.10;35.40;;;;;;5113287;28;20444;-63
2021/12/03 09:02:10;;;;;;;11.23;3.88;;;19.30;35.30;;;;;;5095088;28;20547;-60
2021/12/03 09:04:36;;;;;;;11.75;3.42;;;19.20;35.00;;;;;;5113461;28;20032;-61
2021/12/03 09:07:02;;;;;;;9.55;3.22;;;19.30;35.10;;;;;;5113802;28;20470;-61
2021/12/03 09:09:28;;;;;;;10.98;3.22;;;19.60;34.90;;;;;;5113481;27;20501;-61
2021/12/03 09:11:54;;;;;;;7.75;2.80;;;19.80;34.60;;;;;;5113435;28;20012;-61
2021/12/03 09:17:15;;;;;;;11.15;3.20;;;20.10;34.30;;;;;;5112971;28;20020;-61
2021/12/03 09:19:56;;;;;;;11.55;3.50;;;20.20;34.00;;;;;;5112562;28;20015;-60
2021/12/03 09:22:43;;;;;;;8.95;2.90;;;20.40;34.00;;;;;;5112050;28;20015;-61
2021/12/03 09:25:14;;;;;;;10.35;2.80;;;20.40;34.00;;;;;;5111955;28;20030;-59
2021/12/03 09:27:40;;;;;;;11.20;3.35;;;20.10;34.00;;;;;;5113208;28;20031;-59
2021/12/03 09:30:07;;;;;;;8.77;3.13;;;20.10;34.10;;;;;;5112715;28;20019;-59
2021/12/03 09:32:33;;;;;;;12.95;3.53;;;19.60;34.00;;;;;;5113080;28;20008;-59
2021/12/03 09:35:02;;;;;;;10.43;3.33;;;19.30;34.80;;;;;;5112922;28;20022;-59
2021/12/03 09:37:28;;;;;;;7.50;2.90;;;19.10;35.30;;;;;;5112556;28;20012;-59
2021/12/03 09:40:09;;;;;;;10.00;3.33;;;19.20;35.10;;;;;;5113203;27;20105;-60
2021/12/03 09:42:37;;;;;;;9.60;3.20;;;19.10;35.00;;;;;;5113250;28;20027;-59
2021/12/03 09:45:07;;;;;;;8.27;3.03;;;19.20;35.00;;;;;;5112802;28;20019;-60
2021/12/03 09:47:32;;;;;;;7.93;3.05;;;19.30;34.90;;;;;;5112957;28;20020;-60
2021/12/03 09:50:01;;;;;;;8.82;2.97;;;19.30;34.50;;;;;;5112639;28;20569;-60
2021/12/03 09:55:13;;;;;;;15.45;3.05;;;19.20;34.80;;;;;;5112825;28;20020;-59
2021/12/03 10:28:08;;;;;;;11.30;2.70;;;19.70;36.60;;;;;;5094784;28;20115;-60
2021/12/03 10:39:08;;;;;;;10.63;2.65;;;19.90;35.50;;;;;;5112233;28;20027;-59
2021/12/03 10:49:01;;;;;;;9.27;2.50;;;19.50;35.50;;;;;;5111945;28;20043;-60
2021/12/03 10:54:02;;;;;;;6.53;2.22;;;18.80;36.00;;;;;;5112233;28;20031;-60
2021/12/03 11:07:19;;;;;;;6.30;2.15;;;20.10;35.40;;;;;;5098139;28;20404;-60
2021/12/03 11:37:06;;;;;;;6.15;1.70;;;22.00;33.10;;;;;;5086168;28;20073;-61
2021/12/03 11:49:20;;;;;;;;;;;22.20;33.00;;;;;;5099400;28;20016;-61
2021/12/03 12:10:34;;;;;;;8.52;2.35;;;19.50;37.10;;;;;;5114080;28;20097;-60
2021/12/03 12:22:16;;;;;;;5.90;2.10;;;17.60;41.60;;;;;;5113772;28;20337;-60
2021/12/03 13:08:27;;;;;;;7.05;2.28;;;10.40;59.40;;;;;;5070300;28;20175;-58
2021/12/03 14:06:28;;;;;;;5.53;1.30;;;17.80;40.40;;;;;;5095520;28;20061;-61
2021/12/03 14:38:14;;;;;;;1.63;1.08;;;18.40;39.40;;;;;;5085646;28;20020;-60
2021/12/03 14:55:49;;;;;;;1.70;0.85;;;18.90;38.30;;;;;;5117176;28;20129;-60
2021/12/03 14:58:27;;;;;;;1.48;0.85;;;18.00;39.60;;;;;;5117591;28;20084;-60
2021/12/03 15:07:17;;;;;;;1.63;0.80;;;18.20;40.10;;;;;;5054674;28;20048;-58
2021/12/03 15:09:44;;;;;;;0.88;0.75;;;18.40;39.40;;;;;;5054360;28;20033;-59
2021/12/03 15:25:22;;;;;;;1.88;0.80;;;18.50;39.10;;;;;;5040761;28;20032;-59
2021/12/03 15:28:01;;;;;;;1.15;0.60;;;18.60;38.90;;;;;;5054784;28;20102;-59
2021/12/03 15:54:43;;;;;;;1.15;0.70;;;18.90;38.50;;;;;;5116991;28;20084;-59
2021/12/03 16:05:08;;;;;;;1.10;0.70;;;19.20;38.00;;;;;;5116645;28;20485;-59
2021/12/03 16:07:53;;;;;;;0.65;0.57;;;19.10;38.20;;;;;;5093911;28;20044;-59
2021/12/03 16:10:29;;;;;;;1.10;0.73;;;19.00;38.80;;;;;;5095794;28;20036;-59
2021/12/03 16:23:15;;;;;;;0.80;0.52;;;19.00;38.50;;;;;;5095961;28;20474;-59
2021/12/03 16:44:56;;;;;;;0.75;0.50;;;18.60;39.30;;;;;;5093899;28;20034;-59
2021/12/03 16:52:44;;;;;;;0.50;0.40;;;18.50;39.40;;;;;;5093874;28;20031;-59
2021/12/03 16:55:10;;;;;;;1.55;0.40;;;18.60;39.20;;;;;;5095061;28;20031;-59
2021/12/03 16:57:55;;;;;;;0.98;0.60;;;18.20;40.00;;;;;;5094645;28;20032;-59
2021/12/03 17:00:50;;;;;;;0.75;0.40;;;18.40;39.50;;;;;;5093440;28;20020;-59
2021/12/03 17:03:26;;;;;;;1.17;0.50;;;18.50;39.40;;;;;;5094721;28;20099;-59
2021/12/03 17:16:29;;;;;;;1.80;0.70;;;18.30;39.70;;;;;;5114976;28;20015;-59
2021/12/03 17:48:28;;;;;;;0.68;0.50;;;17.30;41.50;;;;;;5113976;28;20028;-60
2021/12/03 17:51:10;;;;;;;0.57;0.52;;;17.40;41.30;;;;;;5113849;28;20111;-60
2021/12/03 17:53:51;;;;;;;0.40;0.40;;;17.20;41.70;;;;;;5114154;28;20023;-60
2021/12/03 17:56:19;;;;;;;1.55;0.60;;;17.20;41.90;;;;;;5098427;28;20016;-59
2021/12/03 17:58:48;;;;;;;0.90;0.63;;;17.00;42.60;;;;;;5113918;28;20575;-60
2021/12/03 18:01:26;;;;;;;0.52;0.40;;;17.30;42.10;;;;;;5096535;28;20012;-60
2021/12/03 18:43:08;;;;;;;1.05;0.60;;;17.00;42.60;;;;;;5096804;28;20020;-59
2021/12/03 18:57:27;;;;;;;3.17;0.90;;;16.40;44.40;;;;;;5080483;28;20031;-59
2021/12/03 19:00:00;;;;;;;2.38;0.80;;;16.50;43.90;;;;;;5113289;28;20024;-59
2021/12/03 19:02:27;;;;;;;1.48;0.80;;;16.50;43.90;;;;;;5096364;28;20106;-59
2021/12/03 19:05:08;;;;;;;1.75;0.82;;;16.60;43.70;;;;;;5113100;28;20385;-59
2021/12/03 19:07:43;;;;;;;1.35;1.02;;;16.30;44.50;;;;;;5091885;28;20059;-59
2021/12/03 19:10:15;;;;;;;1.70;0.90;;;16.30;44.60;;;;;;5093058;28;20031;-59
2021/12/03 19:12:44;;;;;;;1.33;1.00;;;16.10;44.60;;;;;;5093091;28;20073;-59
2021/12/03 19:15:12;;;;;;;1.00;0.88;;;16.30;44.40;;;;;;5092648;28;20493;-59
2021/12/03 19:17:41;;;;;;;1.45;0.82;;;16.10;45.00;;;;;;5093211;28;20680;-59
2021/12/03 19:20:11;;;;;;;1.35;0.88;;;16.30;44.70;;;;;;5093350;28;20020;-59
2021/12/03 19:22:36;;;;;;;2.55;0.90;;;16.40;44.50;;;;;;5093030;28;20478;-59
2021/12/03 19:25:03;;;;;;;1.90;1.15;;;16.00;45.10;;;;;;5096964;28;20045;-59
2021/12/03 19:27:29;;;;;;;2.20;1.23;;;16.00;45.30;;;;;;5096743;28;20043;-59
2021/12/03 19:29:56;;;;;;;1.40;1.15;;;16.10;45.10;;;;;;5095838;28;20470;-59
2021/12/03 19:32:31;;;;;;;1.90;1.00;;;16.00;45.60;;;;;;5096462;28;20142;-58
2021/12/03 19:34:57;;;;;;;1.45;1.00;;;16.20;45.10;;;;;;5096430;28;20470;-59
2021/12/03 19:37:24;;;;;;;1.23;0.80;;;16.20;45.00;;;;;;5096623;28;20019;-59
2021/12/03 19:39:51;;;;;;;1.65;1.20;;;16.20;45.10;;;;;;5096568;28;20377;-59
2021/12/03 19:42:20;;;;;;;2.00;1.30;;;15.90;45.70;;;;;;5096366;28;20543;-59
2021/12/03 19:44:54;;;;;;;1.75;1.23;;;15.90;45.90;;;;;;5095414;28;20024;-59
2021/12/03 19:47:48;;;;;;;2.40;1.38;;;15.80;46.00;;;;;;5096351;28;20073;-59
2021/12/03 19:52:46;;;;;;;1.65;1.17;;;15.80;46.20;;;;;;5096206;28;20016;-59
2021/12/03 19:55:12;;;;;;;3.95;1.27;;;15.80;46.00;;;;;;5096315;28;20047;-59
2021/12/03 19:57:37;;;;;;;1.35;0.95;;;15.70;46.40;;;;;;5095732;28;20386;-59
2021/12/03 20:00:05;;;;;;;1.55;1.00;;;16.00;46.00;;;;;;5095982;28;20023;-59
2021/12/03 20:02:31;;;;;;;1.38;1.00;;;16.00;45.90;;;;;;5095663;28;20012;-58
2021/12/03 20:04:58;;;;;;;1.17;0.90;;;15.90;45.80;;;;;;5095758;28;20482;-59
2021/12/03 20:07:24;;;;;;;1.58;0.93;;;15.90;45.90;;;;;;5103451;28;20508;-59
2021/12/03 20:09:59;;;;;;;1.95;0.93;;;16.00;45.70;;;;;;5116106;28;20114;-59
2021/12/03 20:12:25;;;;;;;1.80;1.10;;;15.90;45.80;;;;;;5116042;28;20051;-59
2021/12/03 20:14:51;;;;;;;1.77;0.90;;;15.90;46.00;;;;;;5116067;28;20043;-59
2021/12/03 20:17:36;;;;;;;1.42;1.00;;;15.90;46.00;;;;;;5115752;28;20072;-59
2021/12/03 20:20:03;;;;;;;2.15;0.98;;;15.80;46.50;;;;;;5115907;28;20472;-59
2021/12/03 20:28:12;;;;;;;1.20;0.90;;;15.40;47.20;;;;;;5116090;28;20066;-59
2021/12/03 20:30:48;;;;;;;1.85;1.23;;;15.50;47.40;;;;;;5115585;28;20558;-59
2021/12/03 20:33:42;;;;;;;1.63;0.95;;;15.60;47.00;;;;;;5115761;28;20024;-59